Thursday, November 23, 2017, 4:37 AM EST
Back to Local

KORE, Orange, Orange Municipal Airport

Location: Orange, MA, United States Lat: 42.572
Local Time: 4:37 AM EST ( 9:37 GMT) Lon: -72.278
Time Zone: US/Eastern Elev: 554 ft

Show me the last for .
Show Decoded

2017-11-23 03:52 METAR KORE 230852Z AUTO 35009KT 10SM CLR M02/M07 A3000 RMK AO2 SLP166 T10221072
                 51009 TSNO =
2017-11-23 02:52 METAR KORE 230752Z AUTO 33006KT 10SM CLR M02/M07 A3000 RMK AO2 SLP165 T10171067
                 TSNO =
2017-11-23 01:52 METAR KORE 230652Z AUTO 33005KT 10SM CLR M01/M06 A3000 RMK AO2 SLP163 T10111061
                 TSNO =
2017-11-23 00:52 METAR KORE 230552Z AUTO 34010KT 10SM CLR 00/M06 A2998 RMK AO2 SLP157 T00001056
                 10028 21006 51015 TSNO =
2017-11-22 23:52 METAR KORE 230452Z AUTO 32011KT 10SM SCT035 01/M04 A2997 RMK AO2 SLP154
                 T00061044 400611011 TSNO =
2017-11-22 22:52 METAR KORE 230352Z AUTO 33008KT 10SM OVC036 02/M03 A2996 RMK AO2 SLP149
                 T00171033 TSNO =
2017-11-22 21:52 METAR KORE 230252Z AUTO 36010KT 10SM BKN032 OVC043 02/M02 A2993 RMK AO2 SLP142
                 T00171017 52005 TSNO =
2017-11-22 20:52 METAR KORE 230152Z AUTO 32009KT 10SM OVC045 03/M02 A2993 RMK AO2 SLP141
                 T00281017 TSNO =
2017-11-22 19:52 METAR KORE 230052Z AUTO 34008KT 10SM OVC043 03/M02 A2992 RMK AO2 SLP136
                 T00281017 TSNO =
2017-11-22 18:52 METAR KORE 222352Z AUTO 33008KT 10SM OVC036 03/M01 A2992 RMK AO2 SLP137 60004
                 T00281006 10061 20028 51018 TSNO =
2017-11-22 17:52 METAR KORE 222252Z AUTO 35004KT 10SM BKN037 03/01 A2991 RMK AO2 SLP133 T00280006
                 TSNO =
2017-11-22 16:52 METAR KORE 222152Z AUTO 34013G24KT 10SM FEW018 OVC080 04/01 A2989 RMK AO2 SLP126
                 T00390011 TSNO =
2017-11-22 16:29 METAR KORE 222129Z AUTO VRB06KT 10SM FEW016 BKN030 OVC075 04/03 A2988 RMK AO2
                 T00440028 TSNO =
2017-11-22 15:52 METAR KORE 222052Z AUTO 33012KT 10SM OVC025 05/04 A2987 RMK AO2 RAE1954 SLP119
                 P0000 60004 T00500039 53010 TSNO =
2017-11-22 14:52 METAR KORE 221952Z AUTO 32006KT 10SM -RA FEW014 OVC022 06/05 A2985 RMK AO2
                 SLP114 P0002 T00560050 TSNO =
2017-11-22 13:52 METAR KORE 221852Z AUTO 33006KT 9SM -RA BKN023 BKN042 OVC050 06/06 A2984 RMK AO2
                 SLP108 P0002 T00610056 TSNO =
2017-11-22 13:33 METAR KORE 221833Z AUTO 33003KT 8SM -RA BKN023 OVC035 06/06 A2984 RMK AO2 P0001
                 T00610056 TSNO =
2017-11-22 12:52 METAR KORE 221752Z AUTO 00000KT 5SM -RA BR OVC048 06/06 A2984 RMK AO2 SLP109
                 P0004 60012 T00560056 10056 20006 58019 TSNO =
2017-11-22 11:52 METAR KORE 221652Z AUTO 02003KT 4SM -RA BR OVC044 06/05 A2986 RMK AO2 SLP116
                 P0003 T00560050 TSNO =
2017-11-22 10:52 METAR KORE 221552Z AUTO 00000KT 4SM -RA BR FEW023 OVC030 05/05 A2989 RMK AO2
                 SLP126 P0003 T00500050 TSNO =
2017-11-22 10:38 METAR KORE 221538Z AUTO 00000KT 5SM -RA BR FEW021 OVC030 05/05 A2988 RMK AO2
                 P0003 T00500050 TSNO =
2017-11-22 10:08 METAR KORE 221508Z AUTO 00000KT 6SM -RA BR BKN015 BKN021 OVC029 04/04 A2989 RMK
                 AO2 P0001 T00440044 TSNO =
2017-11-22 09:52 METAR KORE 221452Z AUTO 08003KT 6SM -RA BR OVC014 04/04 A2989 RMK AO2 RAB1359
                 SLP127 P0002 60002 T00390039 55012 TSNO =
2017-11-22 09:37 METAR KORE 221437Z AUTO 34004KT 6SM -RA BR BKN013 OVC021 04/03 A2990 RMK AO2
                 RAB1359 P0000 T00390033 TSNO =
2017-11-22 09:23 METAR KORE 221423Z AUTO 00000KT 10SM -RA FEW013 BKN021 OVC090 03/03 A2989 RMK
                 AO2 RAB1359 P0000 T00330033 TSNO =
2017-11-22 08:52 METAR KORE 221352Z AUTO 30004KT 10SM OVC090 03/02 A2989 RMK AO2 RAE02 SLP125
                 P0000 T00280022 TSNO =
2017-11-22 07:52 METAR KORE 221252Z AUTO 31003KT 10SM -RA SCT075 OVC095 02/02 A2991 RMK AO2 RAB51
                 SLP132 P0000 T00170017 TSNO =
2017-11-22 06:52 METAR KORE 221152Z AUTO 11003KT 10SM FEW070 BKN095 BKN110 01/01 A2993 RMK AO2
                 SLP139 T00060006 10006 21011 56012 TSNO =
2017-11-22 05:52 METAR KORE 221052Z AUTO 00000KT 10SM CLR 00/00 A2993 RMK AO2 SLP139 T00000000
                 TSNO =
2017-11-22 04:52 METAR KORE 220952Z AUTO 00000KT 10SM CLR 00/00 A2995 RMK AO2 SLP148 T00000000
                 TSNO =

Support USWX by starting your Amazon purchase here.